Time;durP1;ratioP1;P1;durP2;ratioP2;P2;SDS_P1;SDS_P2;PMS_P1;PMS_P2;Temp;Humidity;BMP_temperature;BMP_pressure;BME280_temperature;BME280_humidity;BME280_pressure;Samples;Min_cycle;Max_cycle;Signal;HPM_P1;HPM_P2
2022/04/19 00:00:17;;;;;;;3.90;3.50;;;8.60;69.10;;;;;;5018569;28;20030;-72
2022/04/19 00:02:43;;;;;;;5.00;3.15;;;8.60;69.30;;;;;;5016294;28;20025;-72
2022/04/19 00:05:10;;;;;;;4.33;3.30;;;8.60;69.10;;;;;;5022253;28;20026;-73
2022/04/19 00:07:39;;;;;;;3.85;2.97;;;8.60;69.30;;;;;;5016623;28;20828;-73
2022/04/19 00:10:06;;;;;;;2.78;2.33;;;8.50;69.30;;;;;;5016942;28;20037;-73
2022/04/19 00:12:31;;;;;;;4.55;2.90;;;8.50;69.00;;;;;;5014847;28;20022;-73
2022/04/19 00:14:57;;;;;;;4.03;2.83;;;8.50;68.70;;;;;;5023875;28;20021;-73
2022/04/19 00:17:23;;;;;;;3.73;2.90;;;8.50;68.90;;;;;;5032744;28;20087;-73
2022/04/19 00:19:49;;;;;;;4.40;2.87;;;8.50;69.00;;;;;;5017357;28;20032;-73
2022/04/19 00:22:19;;;;;;;3.10;2.80;;;8.50;69.10;;;;;;5022607;28;20115;-73
2022/04/19 00:24:54;;;;;;;4.28;2.90;;;8.50;69.30;;;;;;5023943;28;20049;-73
2022/04/19 00:27:20;;;;;;;4.25;2.97;;;8.50;69.10;;;;;;5021698;28;20018;-73
2022/04/19 00:29:47;;;;;;;6.67;3.57;;;8.50;68.50;;;;;;5020386;28;20082;-73
2022/04/19 00:32:14;;;;;;;4.22;2.83;;;8.50;68.00;;;;;;5018902;28;20653;-72
2022/04/19 00:34:46;;;;;;;5.65;3.20;;;8.50;67.70;;;;;;5018418;28;20024;-73
2022/04/19 00:37:15;;;;;;;4.13;3.05;;;8.50;67.30;;;;;;5016281;28;20535;-72
2022/04/19 00:39:40;;;;;;;4.13;3.08;;;8.50;65.50;;;;;;5024063;28;20129;-72
2022/04/19 00:42:08;;;;;;;4.37;3.10;;;8.50;64.70;;;;;;5020490;28;20037;-73
2022/04/19 00:44:39;;;;;;;4.45;3.20;;;8.50;64.90;;;;;;5019424;28;20092;-72
2022/04/19 00:47:07;;;;;;;5.38;3.25;;;8.50;65.20;;;;;;5018492;28;20025;-73
2022/04/19 00:49:35;;;;;;;3.70;2.60;;;8.50;64.80;;;;;;5021095;28;20022;-73
2022/04/19 00:52:02;;;;;;;3.60;3.25;;;8.50;65.00;;;;;;5035833;28;20494;-73
2022/04/19 00:54:29;;;;;;;3.92;2.97;;;8.50;64.80;;;;;;5027964;28;20108;-72
2022/04/19 00:56:56;;;;;;;4.15;2.60;;;8.60;64.60;;;;;;5036667;28;20037;-73
2022/04/19 00:59:21;;;;;;;;;;;8.50;64.80;;;;;;5026208;28;20033;-73
2022/04/19 01:01:47;;;;;;;4.22;2.90;;;8.50;64.90;;;;;;5023332;28;19916;-73
2022/04/19 01:04:13;;;;;;;3.90;2.80;;;8.50;65.10;;;;;;5014847;28;20286;-73
2022/04/19 01:06:40;;;;;;;5.00;3.40;;;8.50;65.20;;;;;;5021489;28;20033;-72
2022/04/19 01:09:06;;;;;;;3.08;2.70;;;8.50;65.70;;;;;;5015047;28;20026;-73
2022/04/19 01:14:18;;;;;;;3.78;2.78;;;8.50;67.40;;;;;;5019280;28;20091;-73
2022/04/19 01:16:44;;;;;;;3.80;2.80;;;8.50;68.20;;;;;;5023592;28;20021;-73
2022/04/19 01:19:15;;;;;;;4.07;2.83;;;8.40;68.70;;;;;;5023484;28;20503;-73
2022/04/19 01:21:50;;;;;;;5.35;2.88;;;8.40;69.60;;;;;;5019639;28;20021;-73
2022/04/19 01:24:19;;;;;;;3.60;2.45;;;8.40;70.00;;;;;;5017558;28;20211;-73
2022/04/19 01:26:47;;;;;;;2.63;2.40;;;8.40;70.30;;;;;;5025769;28;20036;-72
2022/04/19 01:29:15;;;;;;;3.08;2.42;;;8.40;70.70;;;;;;5032680;28;20076;-73
2022/04/19 01:31:45;;;;;;;5.18;3.17;;;8.50;71.50;;;;;;5025927;28;20344;-74
2022/04/19 01:34:12;;;;;;;4.13;2.70;;;8.60;71.60;;;;;;5033970;28;20045;-73
2022/04/19 01:36:39;;;;;;;3.75;2.85;;;8.50;71.40;;;;;;5023943;28;20147;-73
2022/04/19 01:39:08;;;;;;;;;;;8.50;70.50;;;;;;5021623;28;20040;-72
2022/04/19 01:41:37;;;;;;;3.35;2.78;;;8.50;70.50;;;;;;5022714;28;20295;-73
2022/04/19 01:44:06;;;;;;;3.55;2.60;;;8.50;71.20;;;;;;5013889;28;20025;-73
2022/04/19 01:46:33;;;;;;;5.45;3.28;;;8.40;71.60;;;;;;5039803;28;20611;-72
2022/04/19 01:49:04;;;;;;;3.75;2.58;;;8.40;71.80;;;;;;5021770;28;20026;-73
2022/04/19 01:51:31;;;;;;;5.35;3.03;;;8.30;71.50;;;;;;5039025;28;20037;-72
2022/04/19 01:53:57;;;;;;;3.58;2.60;;;8.30;71.50;;;;;;5019186;28;20048;-73
2022/04/19 01:56:27;;;;;;;4.50;2.77;;;8.40;71.70;;;;;;5023573;28;20065;-73
2022/04/19 01:58:53;;;;;;;6.13;3.50;;;8.40;72.10;;;;;;5023440;28;20026;-73
2022/04/19 02:01:19;;;;;;;6.60;3.47;;;8.40;72.40;;;;;;5020529;28;20042;-72
2022/04/19 02:03:48;;;;;;;6.32;3.17;;;8.40;73.00;;;;;;5021715;28;20025;-72
2022/04/19 02:06:14;;;;;;;4.72;3.53;;;8.50;73.00;;;;;;5016504;28;20033;-72
2022/04/19 02:08:40;;;;;;;4.68;3.13;;;8.50;72.90;;;;;;5038498;28;20029;-72
2022/04/19 02:11:06;;;;;;;5.40;3.72;;;8.50;73.50;;;;;;5035132;28;20426;-72
2022/04/19 02:13:31;;;;;;;5.83;3.53;;;8.50;74.30;;;;;;5020641;28;20039;-73
2022/04/19 02:15:58;;;;;;;5.00;3.17;;;8.50;74.90;;;;;;5022875;28;20021;-72
2022/04/19 02:18:25;;;;;;;6.75;3.80;;;8.40;75.20;;;;;;5018359;28;20032;-72
2022/04/19 02:20:52;;;;;;;6.38;3.47;;;8.50;75.90;;;;;;5019403;28;20049;-72
2022/04/19 02:23:17;;;;;;;;;;;8.50;76.60;;;;;;5015863;28;20708;-72
2022/04/19 02:25:46;;;;;;;5.65;3.72;;;8.40;77.00;;;;;;5020805;28;19991;-72
2022/04/19 02:28:13;;;;;;;7.35;3.78;;;8.40;77.50;;;;;;5014270;28;20450;-72
2022/04/19 02:30:39;;;;;;;4.28;3.00;;;8.30;77.80;;;;;;5022422;28;20013;-72
2022/04/19 02:33:05;;;;;;;4.47;3.00;;;8.30;77.80;;;;;;5015771;28;20029;-73
2022/04/19 02:35:31;;;;;;;5.93;3.50;;;8.30;78.10;;;;;;5022645;28;20071;-72
2022/04/19 02:37:59;;;;;;;6.63;3.55;;;8.30;77.80;;;;;;5019706;28;20029;-73
2022/04/19 02:40:26;;;;;;;4.70;3.58;;;8.30;77.70;;;;;;5016383;28;20053;-72
2022/04/19 02:42:55;;;;;;;7.07;3.30;;;8.40;78.20;;;;;;5022037;28;20064;-72
2022/04/19 02:45:23;;;;;;;4.93;3.30;;;8.40;78.20;;;;;;5014702;28;20029;-73
2022/04/19 02:48:04;;;;;;;6.05;3.53;;;8.40;78.60;;;;;;5017093;28;20381;-72
2022/04/19 02:50:33;;;;;;;6.45;3.47;;;8.40;78.60;;;;;;5020516;28;20028;-73
2022/04/19 02:53:03;;;;;;;4.43;3.03;;;8.40;78.90;;;;;;5035688;28;20056;-72
2022/04/19 02:55:29;;;;;;;4.38;3.17;;;8.40;79.10;;;;;;5020392;28;20030;-72
2022/04/19 02:57:55;;;;;;;5.97;3.57;;;8.40;79.00;;;;;;5037884;28;20036;-72
2022/04/19 03:00:24;;;;;;;5.88;3.40;;;8.40;78.90;;;;;;5019867;28;20096;-72
2022/04/19 03:02:50;;;;;;;3.10;2.80;;;8.40;79.10;;;;;;5022843;28;20032;-72
2022/04/19 03:05:20;;;;;;;6.22;3.92;;;8.40;78.90;;;;;;5015228;28;20045;-73
2022/04/19 03:07:48;;;;;;;4.82;3.47;;;8.30;78.70;;;;;;5034849;28;20026;-72
2022/04/19 03:10:15;;;;;;;3.55;3.13;;;8.40;78.60;;;;;;5017542;28;20029;-72
2022/04/19 03:12:44;;;;;;;5.47;3.80;;;8.40;78.30;;;;;;5033823;28;20030;-72
2022/04/19 03:15:15;;;;;;;5.38;3.97;;;8.30;78.10;;;;;;5013911;28;20076;-72
2022/04/19 03:17:43;;;;;;;5.82;3.40;;;8.20;78.40;;;;;;5021640;28;20083;-72
2022/04/19 03:20:11;;;;;;;5.18;3.28;;;8.30;78.30;;;;;;5017562;28;20053;-72
2022/04/19 03:28:06;;;;;;;4.60;3.35;;;8.10;78.60;;;;;;5020778;28;20075;-72
2022/04/19 03:30:31;;;;;;;6.07;3.42;;;8.20;78.80;;;;;;5026512;28;20025;-73
2022/04/19 03:32:57;;;;;;;5.33;3.67;;;8.10;77.60;;;;;;5024350;28;20036;-72
2022/04/19 03:35:24;;;;;;;5.23;3.23;;;8.10;77.70;;;;;;5015473;28;20509;-72
2022/04/19 03:37:49;;;;;;;4.25;2.85;;;8.10;77.80;;;;;;5018464;28;20482;-72
2022/04/19 03:40:15;;;;;;;7.87;3.33;;;8.10;78.10;;;;;;5015495;28;20033;-72
2022/04/19 03:42:43;;;;;;;4.70;3.50;;;8.00;78.30;;;;;;5017817;28;20117;-72
2022/04/19 03:45:11;;;;;;;5.35;3.22;;;8.00;78.00;;;;;;5016970;28;20105;-72
2022/04/19 03:47:37;;;;;;;6.32;3.60;;;7.90;78.50;;;;;;5042864;28;20032;-73
2022/04/19 03:50:04;;;;;;;5.20;3.10;;;7.90;77.40;;;;;;5023096;28;20477;-73
2022/04/19 03:52:31;;;;;;;6.38;3.47;;;7.90;76.80;;;;;;5028455;28;20074;-72
2022/04/19 03:54:57;;;;;;;4.38;3.53;;;7.90;76.30;;;;;;5016823;28;20029;-72
2022/04/19 03:57:25;;;;;;;5.28;3.45;;;8.00;77.00;;;;;;5017309;28;21472;-72
2022/04/19 03:59:53;;;;;;;4.20;3.20;;;8.00;76.90;;;;;;5027170;28;20048;-72
2022/04/19 04:02:21;;;;;;;6.00;3.35;;;8.00;76.40;;;;;;5018342;28;20087;-73
2022/04/19 04:04:47;;;;;;;4.00;3.50;;;8.10;76.60;;;;;;5022687;28;20021;-72
2022/04/19 04:07:14;;;;;;;7.07;3.63;;;8.10;76.60;;;;;;5012488;28;20040;-72
2022/04/19 04:09:41;;;;;;;4.97;3.22;;;8.10;76.50;;;;;;5021083;28;20022;-73
2022/04/19 04:12:11;;;;;;;3.53;2.80;;;8.10;76.70;;;;;;5015055;28;20083;-73
2022/04/19 04:14:40;;;;;;;3.03;2.63;;;8.10;77.30;;;;;;5019146;28;20021;-72
2022/04/19 04:17:07;;;;;;;4.47;2.67;;;8.00;77.20;;;;;;5033279;28;20813;-72
2022/04/19 04:19:33;;;;;;;6.70;2.92;;;8.00;77.30;;;;;;5015267;28;20056;-72
2022/04/19 04:21:59;;;;;;;3.95;3.47;;;8.00;77.20;;;;;;5017134;28;20040;-72
2022/04/19 04:24:26;;;;;;;4.85;3.05;;;8.00;77.20;;;;;;5016512;28;20030;-72
2022/04/19 04:26:52;;;;;;;4.78;3.50;;;8.00;77.20;;;;;;5017849;28;20040;-72
2022/04/19 04:29:17;;;;;;;4.53;3.43;;;8.00;77.30;;;;;;5020273;28;20025;-72
2022/04/19 04:31:43;;;;;;;5.30;2.80;;;8.00;77.50;;;;;;5017089;28;20068;-72
2022/04/19 04:34:09;;;;;;;4.63;3.40;;;8.00;77.40;;;;;;5013476;28;20613;-73
2022/04/19 04:36:39;;;;;;;5.63;3.23;;;8.10;77.20;;;;;;5024619;28;20022;-72
2022/04/19 04:39:05;;;;;;;4.55;2.92;;;8.10;77.50;;;;;;5018221;28;20087;-73
2022/04/19 04:41:33;;;;;;;3.47;3.03;;;8.10;77.50;;;;;;5020821;28;20029;-72
2022/04/19 04:44:01;;;;;;;5.20;3.13;;;8.20;77.70;;;;;;5024143;28;20095;-73
2022/04/19 04:51:58;;;;;;;5.53;2.97;;;8.40;76.40;;;;;;5021064;28;20915;-73
2022/04/19 04:54:24;;;;;;;4.00;3.22;;;8.50;76.80;;;;;;5017203;28;20036;-72
2022/04/19 04:56:52;;;;;;;6.57;3.23;;;8.40;77.10;;;;;;5021183;28;20029;-72
2022/04/19 04:59:18;;;;;;;4.78;3.33;;;8.40;77.20;;;;;;5019369;28;20036;-73
2022/04/19 05:01:47;;;;;;;6.07;3.60;;;8.30;77.40;;;;;;5035837;28;20022;-72
2022/04/19 05:04:13;;;;;;;5.00;3.60;;;8.30;77.10;;;;;;5015951;28;20290;-73
2022/04/19 05:06:41;;;;;;;6.10;3.05;;;8.40;77.30;;;;;;5017324;28;20363;-72
2022/04/19 05:09:13;;;;;;;7.65;3.63;;;8.40;77.20;;;;;;5025773;28;20057;-74
2022/04/19 05:11:41;;;;;;;4.20;3.08;;;8.50;77.00;;;;;;5013825;28;20097;-72
2022/04/19 05:14:08;;;;;;;5.40;3.67;;;8.60;77.30;;;;;;5015915;28;20116;-72
2022/04/19 05:16:38;;;;;;;5.07;3.50;;;8.60;78.00;;;;;;5020197;28;20024;-73
2022/04/19 05:19:05;;;;;;;5.45;3.38;;;8.40;78.20;;;;;;5015749;28;20032;-72
2022/04/19 05:21:33;;;;;;;;;;;8.40;80.10;;;;;;5020488;28;20053;-73
2022/04/19 05:23:58;;;;;;;6.60;3.80;;;8.30;79.80;;;;;;5022212;28;19921;-77
2022/04/19 05:26:28;;;;;;;7.17;3.80;;;8.30;82.00;;;;;;5010408;28;20034;-77
2022/04/19 05:28:54;;;;;;;4.88;3.53;;;8.40;81.40;;;;;;5025936;28;20022;-76
2022/04/19 05:31:21;;;;;;;;;;;8.40;81.20;;;;;;5032188;28;20029;-73
2022/04/19 05:33:47;;;;;;;7.63;3.65;;;8.50;81.90;;;;;;5020764;28;19911;-73
2022/04/19 05:36:14;;;;;;;6.23;3.80;;;8.50;82.40;;;;;;5020720;28;20026;-73
2022/04/19 05:38:42;;;;;;;5.22;3.63;;;8.50;81.90;;;;;;5022183;28;20742;-72
2022/04/19 05:41:11;;;;;;;4.95;3.40;;;8.60;83.60;;;;;;5026476;28;20063;-73
2022/04/19 05:43:39;;;;;;;5.40;3.80;;;8.60;83.60;;;;;;5021828;28;20021;-73
2022/04/19 05:46:07;;;;;;;4.25;3.78;;;8.70;82.70;;;;;;5021388;28;20022;-73
2022/04/19 05:48:34;;;;;;;4.70;3.60;;;8.70;81.70;;;;;;5035482;28;20021;-73
2022/04/19 05:51:01;;;;;;;6.50;3.53;;;8.70;80.90;;;;;;5025600;28;20025;-73
2022/04/19 05:53:27;;;;;;;6.18;3.92;;;8.80;80.60;;;;;;5016170;28;20682;-74
2022/04/19 05:55:54;;;;;;;5.00;3.57;;;8.80;80.20;;;;;;5044187;28;20156;-74
2022/04/19 05:58:21;;;;;;;9.32;3.70;;;8.80;79.20;;;;;;5017228;28;20578;-74
2022/04/19 06:00:48;;;;;;;6.47;3.80;;;8.80;80.00;;;;;;5020210;28;20374;-74
2022/04/19 06:05:59;;;;;;;6.65;3.75;;;9.00;78.80;;;;;;5027309;28;20037;-73
2022/04/19 06:08:28;;;;;;;4.50;3.47;;;9.10;77.60;;;;;;5024779;28;20126;-73
2022/04/19 06:10:59;;;;;;;4.90;3.20;;;9.10;77.30;;;;;;5025655;28;20038;-73
2022/04/19 06:13:25;;;;;;;6.03;3.95;;;9.10;77.50;;;;;;5018350;28;20056;-74
2022/04/19 06:15:50;;;;;;;5.65;3.53;;;9.10;77.80;;;;;;5025166;28;20433;-73
2022/04/19 06:18:21;;;;;;;3.63;3.20;;;9.10;78.30;;;;;;5024740;28;20057;-73
2022/04/19 06:20:53;;;;;;;4.85;3.55;;;9.00;78.10;;;;;;5038655;28;20030;-73
2022/04/19 06:23:19;;;;;;;5.97;3.50;;;8.90;78.00;;;;;;5035750;28;20184;-74
2022/04/19 06:25:46;;;;;;;6.53;4.05;;;8.80;78.20;;;;;;5020821;28;20044;-74
2022/04/19 06:28:12;;;;;;;7.32;3.85;;;8.80;79.10;;;;;;5024784;28;20113;-73
2022/04/19 06:30:40;;;;;;;7.93;3.87;;;8.70;79.40;;;;;;5019105;28;20523;-73
2022/04/19 06:33:06;;;;;;;6.70;3.85;;;8.60;79.70;;;;;;5022965;28;20029;-73
2022/04/19 06:35:41;;;;;;;5.20;3.53;;;8.30;81.50;;;;;;5015642;28;20020;-74
2022/04/19 06:38:09;;;;;;;8.50;3.85;;;8.30;81.90;;;;;;5016030;28;20382;-73
2022/04/19 06:40:35;;;;;;;6.43;3.33;;;8.30;81.20;;;;;;5020109;28;20021;-73
2022/04/19 06:43:03;;;;;;;6.80;3.90;;;8.10;81.00;;;;;;5038631;28;20022;-73
2022/04/19 06:45:31;;;;;;;5.60;3.55;;;8.10;82.10;;;;;;5037790;28;20085;-73
2022/04/19 06:48:02;;;;;;;5.78;3.75;;;7.90;81.90;;;;;;5022913;28;20758;-74
2022/04/19 06:50:28;;;;;;;7.50;3.20;;;7.90;83.20;;;;;;5018460;28;20032;-73
2022/04/19 06:52:55;;;;;;;6.35;3.47;;;7.90;84.00;;;;;;5026775;28;20033;-74
2022/04/19 06:55:21;;;;;;;5.70;4.15;;;7.70;85.40;;;;;;5019458;28;20104;-73
2022/04/19 06:57:48;;;;;;;5.97;3.90;;;7.70;87.50;;;;;;5021055;28;20021;-73
2022/04/19 07:00:16;;;;;;;8.20;4.57;;;7.70;88.70;;;;;;5022123;28;20033;-73
2022/04/19 07:02:44;;;;;;;5.95;3.60;;;7.70;89.90;;;;;;5018527;28;20241;-73
2022/04/19 07:05:12;;;;;;;6.07;3.90;;;7.70;90.00;;;;;;5016874;28;20056;-73
2022/04/19 07:07:43;;;;;;;7.25;3.90;;;7.90;90.90;;;;;;5014813;28;20137;-73
2022/04/19 07:10:12;;;;;;;5.43;3.85;;;7.80;91.30;;;;;;5034060;28;20048;-73
2022/04/19 07:12:39;;;;;;;6.85;4.13;;;7.80;92.10;;;;;;5016586;28;20017;-73
2022/04/19 07:15:05;;;;;;;8.23;3.97;;;7.80;91.80;;;;;;5026739;28;20486;-73
2022/04/19 07:17:36;;;;;;;6.50;3.47;;;7.80;91.20;;;;;;5037183;28;20427;-74
2022/04/19 07:28:21;;;;;;;4.47;3.70;;;8.00;92.50;;;;;;5020551;28;20485;-73
2022/04/19 07:30:47;;;;;;;5.50;3.53;;;8.10;93.60;;;;;;5018646;28;20022;-73
2022/04/19 07:33:13;;;;;;;6.27;4.13;;;8.10;93.90;;;;;;5041265;28;20028;-74
2022/04/19 07:35:40;;;;;;;6.45;4.53;;;8.30;94.20;;;;;;5022614;28;20024;-73
2022/04/19 07:38:08;;;;;;;;;;;8.30;93.90;;;;;;5023315;28;20029;-73
2022/04/19 07:40:35;;;;;;;6.53;4.05;;;8.30;93.60;;;;;;5019903;28;19905;-74
2022/04/19 07:43:02;;;;;;;5.75;3.97;;;8.40;93.90;;;;;;5017709;28;20024;-74
2022/04/19 07:45:30;;;;;;;7.00;4.57;;;8.40;93.60;;;;;;5024504;28;20018;-74
2022/04/19 07:47:55;;;;;;;9.63;4.25;;;8.20;95.10;;;;;;5039311;28;20164;-73
2022/04/19 07:50:23;;;;;;;6.27;4.07;;;8.00;94.90;;;;;;5019606;28;20116;-73
2022/04/19 07:52:49;;;;;;;6.30;4.43;;;8.00;95.30;;;;;;5019207;28;20101;-73
2022/04/19 07:55:19;;;;;;;7.83;4.80;;;7.90;96.20;;;;;;5019182;28;20096;-73
2022/04/19 07:57:44;;;;;;;7.70;4.35;;;7.90;96.40;;;;;;5018700;28;20048;-74
2022/04/19 08:00:13;;;;;;;5.30;3.83;;;7.90;96.50;;;;;;5022436;28;20044;-73
2022/04/19 08:02:40;;;;;;;7.10;4.13;;;7.90;97.10;;;;;;5031507;28;20025;-74
2022/04/19 08:05:06;;;;;;;5.88;4.63;;;7.90;95.50;;;;;;5030404;28;20035;-73
2022/04/19 08:07:33;;;;;;;7.40;4.75;;;7.90;96.50;;;;;;5017214;28;20623;-74
2022/04/19 08:10:00;;;;;;;;;;;8.00;97.20;;;;;;5021530;28;20025;-73
2022/04/19 08:12:26;;;;;;;6.75;4.40;;;8.00;96.80;;;;;;5020013;28;19983;-73
2022/04/19 08:14:53;;;;;;;8.13;4.90;;;8.20;97.20;;;;;;5027634;28;20021;-73
2022/04/19 08:17:18;;;;;;;6.25;4.07;;;8.30;96.90;;;;;;5040702;28;20035;-73
2022/04/19 08:19:44;;;;;;;4.93;3.97;;;8.50;96.40;;;;;;5018029;28;20021;-73
2022/04/19 08:22:10;;;;;;;6.10;4.20;;;8.50;96.10;;;;;;5024301;28;20037;-74
2022/04/19 08:24:35;;;;;;;6.10;4.10;;;8.50;96.10;;;;;;5019408;28;20040;-73
2022/04/19 08:27:04;;;;;;;6.10;4.17;;;8.70;96.90;;;;;;5031704;28;20049;-73
2022/04/19 08:29:31;;;;;;;6.63;4.45;;;8.70;96.20;;;;;;5015207;28;20009;-74
2022/04/19 08:31:56;;;;;;;7.63;4.70;;;8.70;96.80;;;;;;5017809;28;20032;-73
2022/04/19 08:34:23;;;;;;;7.43;5.10;;;8.70;96.80;;;;;;5016237;28;20034;-73
2022/04/19 08:36:49;;;;;;;;;;;8.80;96.40;;;;;;5023015;28;20087;-73
2022/04/19 08:39:14;;;;;;;6.65;4.63;;;8.80;96.80;;;;;;5018384;28;19905;-73
2022/04/19 08:41:41;;;;;;;6.43;4.50;;;8.70;96.50;;;;;;5029753;28;20021;-73
2022/04/19 08:44:08;;;;;;;6.15;4.35;;;8.70;97.00;;;;;;5018948;28;20045;-73
2022/04/19 08:46:39;;;;;;;6.13;4.53;;;8.60;97.20;;;;;;5014587;28;20436;-73
2022/04/19 08:49:05;;;;;;;7.35;4.50;;;8.60;96.30;;;;;;5018862;28;20483;-73
2022/04/19 08:51:34;;;;;;;5.73;4.20;;;8.70;97.10;;;;;;5018422;28;20049;-73
2022/04/19 08:59:31;;;;;;;6.38;4.68;;;8.50;96.60;;;;;;5024191;28;20020;-74
2022/04/19 09:02:00;;;;;;;7.50;4.88;;;8.60;96.30;;;;;;5013154;28;20032;-73
2022/04/19 09:04:26;;;;;;;6.10;4.65;;;8.70;96.70;;;;;;5012210;28;20124;-74
2022/04/19 09:06:56;;;;;;;6.10;4.60;;;8.70;96.70;;;;;;5016657;28;20513;-74
2022/04/19 09:09:23;;;;;;;9.00;4.82;;;8.80;96.80;;;;;;5016326;28;20029;-73
2022/04/19 09:11:54;;;;;;;5.65;4.57;;;8.80;96.70;;;;;;5032002;28;20041;-73
2022/04/19 09:14:23;;;;;;;5.63;4.55;;;8.90;97.30;;;;;;5020817;28;20033;-73
2022/04/19 09:17:02;;;;;;;6.53;4.55;;;8.90;96.10;;;;;;5017359;28;20031;-73
2022/04/19 09:19:28;;;;;;;6.68;5.05;;;8.90;96.60;;;;;;5017550;28;20021;-73
2022/04/19 09:21:54;;;;;;;5.75;4.50;;;9.00;97.20;;;;;;5029408;28;20115;-73
2022/04/19 09:24:21;;;;;;;6.13;4.67;;;9.10;96.50;;;;;;5033254;28;20037;-73
2022/04/19 09:26:49;;;;;;;6.78;4.93;;;9.00;96.80;;;;;;5021310;28;20275;-73
2022/04/19 09:29:25;;;;;;;8.30;5.07;;;9.00;96.10;;;;;;5025866;28;20363;-73
2022/04/19 09:32:02;;;;;;;6.32;4.82;;;8.80;96.00;;;;;;5023321;28;20028;-72
2022/04/19 09:34:29;;;;;;;10.40;5.90;;;8.90;96.60;;;;;;5023651;28;20490;-73
2022/04/19 09:37:12;;;;;;;6.80;4.97;;;8.60;96.50;;;;;;5016363;28;20120;-73
2022/04/19 09:39:40;;;;;;;6.15;4.50;;;8.50;96.80;;;;;;5018617;28;20101;-73
2022/04/19 09:42:14;;;;;;;8.52;4.95;;;8.50;97.10;;;;;;5019803;28;20027;-73
2022/04/19 09:44:41;;;;;;;6.97;5.07;;;8.30;97.70;;;;;;5018169;28;20028;-72
2022/04/19 09:47:09;;;;;;;6.53;4.70;;;8.20;98.30;;;;;;5019995;28;20029;-73
2022/04/19 09:49:46;;;;;;;6.80;5.53;;;8.00;97.70;;;;;;5025262;28;20036;-73
2022/04/19 09:52:21;;;;;;;9.38;5.60;;;7.90;99.50;;;;;;5022205;28;20028;-73
2022/04/19 09:55:19;;;;;;;9.18;6.13;;;7.80;99.90;;;;;;5021895;28;20025;-73
2022/04/19 09:57:47;;;;;;;6.80;5.50;;;7.70;99.90;;;;;;5014852;28;20041;-73
2022/04/19 10:00:15;;;;;;;6.00;5.00;;;7.70;99.90;;;;;;5019897;28;20159;-73
2022/04/19 10:08:19;;;;;;;8.60;5.18;;;7.50;99.90;;;;;;5015902;28;20080;-73
2022/04/19 10:10:46;;;;;;;7.18;5.07;;;7.40;99.90;;;;;;5025006;28;20603;-73
2022/04/19 10:13:24;;;;;;;7.15;5.43;;;7.30;99.90;;;;;;5019169;28;20352;-73
2022/04/19 10:15:51;;;;;;;7.22;5.03;;;7.30;99.90;;;;;;5026697;28;20021;-73
2022/04/19 10:18:17;;;;;;;8.13;5.80;;;7.30;99.90;;;;;;5016892;28;20079;-72
2022/04/19 10:20:53;;;;;;;7.40;5.80;;;7.30;99.90;;;;;;5019735;28;20438;-73
2022/04/19 10:23:19;;;;;;;9.00;5.40;;;7.40;99.90;;;;;;5014945;28;20025;-73
2022/04/19 10:25:50;;;;;;;7.83;5.60;;;7.40;99.90;;;;;;5027681;28;20847;-72
2022/04/19 10:28:37;;;;;;;8.40;5.25;;;7.40;99.90;;;;;;5021363;28;20437;-73
2022/04/19 10:31:03;;;;;;;6.50;5.22;;;7.50;99.90;;;;;;5026737;28;20086;-73
2022/04/19 10:33:41;;;;;;;6.70;5.25;;;7.50;99.90;;;;;;5035571;28;20082;-72
2022/04/19 10:36:10;;;;;;;;;;;7.50;99.90;;;;;;5016385;28;20068;-72
2022/04/19 10:38:37;;;;;;;7.00;5.18;;;7.40;99.90;;;;;;5020783;28;19909;-73
2022/04/19 10:41:03;;;;;;;6.82;4.70;;;7.40;99.90;;;;;;5016627;28;20065;-73
2022/04/19 10:43:30;;;;;;;7.57;5.20;;;7.30;99.90;;;;;;5021351;28;20603;-72
2022/04/19 10:46:21;;;;;;;7.45;5.30;;;7.30;99.90;;;;;;5019274;28;20030;-72
2022/04/19 10:49:24;;;;;;;7.18;4.90;;;7.30;99.90;;;;;;5026276;28;20024;-73
2022/04/19 10:51:59;;;;;;;5.85;4.40;;;7.20;99.90;;;;;;5034495;28;20022;-71
2022/04/19 10:55:03;;;;;;;6.55;4.68;;;7.20;99.90;;;;;;5018000;28;20030;-73
2022/04/19 11:00:43;;;;;;;5.57;4.50;;;7.40;99.90;;;;;;5022504;28;20379;-72
2022/04/19 11:03:16;;;;;;;6.43;5.05;;;7.40;99.90;;;;;;5017923;28;20029;-72
2022/04/19 11:05:48;;;;;;;6.53;5.00;;;7.40;99.90;;;;;;5029117;28;20100;-72
2022/04/19 11:08:24;;;;;;;7.75;5.20;;;7.30;99.90;;;;;;5017979;28;20662;-73
2022/04/19 11:10:50;;;;;;;5.78;4.82;;;7.40;99.90;;;;;;5017624;28;21139;-72
2022/04/19 11:13:17;;;;;;;7.47;4.70;;;7.50;99.90;;;;;;5015912;28;20029;-72
2022/04/19 11:15:43;;;;;;;6.97;4.65;;;7.70;99.90;;;;;;5020366;28;20033;-73
2022/04/19 11:18:23;;;;;;;5.53;4.30;;;7.70;99.90;;;;;;5021454;28;20029;-73
2022/04/19 11:20:56;;;;;;;5.85;4.57;;;7.70;99.90;;;;;;5021368;28;20120;-72
2022/04/19 11:23:26;;;;;;;5.82;4.50;;;7.50;99.90;;;;;;5017389;28;20442;-72
2022/04/19 11:25:54;;;;;;;6.68;4.60;;;7.40;99.90;;;;;;5025334;28;20778;-72
2022/04/19 11:28:31;;;;;;;6.07;4.53;;;7.40;99.90;;;;;;5014873;28;20072;-72
2022/04/19 11:30:58;;;;;;;6.30;4.43;;;7.40;99.90;;;;;;5016170;28;20663;-72
2022/04/19 11:33:25;;;;;;;;;;;7.40;99.90;;;;;;5018182;28;20738;-72
2022/04/19 11:36:06;;;;;;;5.85;4.78;;;7.40;99.90;;;;;;5021855;28;20380;-72
2022/04/19 11:38:35;;;;;;;5.85;4.68;;;7.40;99.90;;;;;;5023949;28;20086;-72
2022/04/19 11:46:45;;;;;;;6.00;4.45;;;7.10;99.90;;;;;;5018903;28;20091;-72
2022/04/19 11:49:16;;;;;;;5.53;4.25;;;7.00;99.90;;;;;;5016593;28;20026;-73
2022/04/19 11:51:55;;;;;;;5.50;4.43;;;6.80;99.90;;;;;;5017865;28;20029;-72
2022/04/19 11:54:21;;;;;;;7.55;5.28;;;6.80;99.90;;;;;;5015532;28;20021;-72
2022/04/19 11:56:54;;;;;;;8.40;5.70;;;6.80;99.90;;;;;;5018616;28;20075;-72
2022/04/19 11:59:31;;;;;;;6.13;4.95;;;6.80;99.90;;;;;;5014603;28;20033;-72
2022/04/19 12:01:58;;;;;;;6.20;4.80;;;6.80;99.90;;;;;;5019191;28;20021;-72
2022/04/19 12:04:25;;;;;;;6.95;5.22;;;6.70;99.90;;;;;;5033009;28;20043;-72
2022/04/19 12:07:02;;;;;;;5.88;4.57;;;6.60;99.90;;;;;;5020424;28;20021;-72
2022/04/19 12:09:31;;;;;;;8.27;5.07;;;6.50;99.90;;;;;;5035613;28;20035;-73
2022/04/19 12:11:57;;;;;;;7.32;5.15;;;6.50;99.90;;;;;;5025231;28;20846;-72
2022/04/19 12:14:31;;;;;;;6.70;5.20;;;6.50;99.90;;;;;;5016620;28;20654;-72
2022/04/19 12:17:00;;;;;;;7.93;5.22;;;6.60;99.90;;;;;;5021491;28;20061;-73
2022/04/19 12:19:40;;;;;;;6.22;4.45;;;6.60;99.90;;;;;;5014115;28;20032;-72
2022/04/19 12:22:17;;;;;;;9.05;5.10;;;6.70;99.90;;;;;;5024522;28;20025;-72
2022/04/19 12:24:47;;;;;;;6.60;4.78;;;6.70;99.90;;;;;;5019458;28;20037;-72
2022/04/19 12:27:15;;;;;;;8.60;5.25;;;6.80;99.90;;;;;;5036622;28;20021;-72
2022/04/19 12:30:01;;;;;;;6.53;5.40;;;6.60;99.90;;;;;;5016958;28;20024;-72
2022/04/19 12:32:48;;;;;;;8.60;5.85;;;6.50;99.90;;;;;;5012908;28;20053;-72
2022/04/19 12:35:14;;;;;;;12.23;7.43;;;6.50;99.90;;;;;;5028029;28;20021;-73
2022/04/19 12:37:40;;;;;;;14.13;7.43;;;6.40;99.90;;;;;;5026555;28;20035;-72
2022/04/19 12:40:07;;;;;;;12.02;7.30;;;6.30;99.90;;;;;;5021421;28;20132;-72
2022/04/19 12:42:54;;;;;;;7.18;5.85;;;6.30;99.90;;;;;;5021305;28;20176;-72
2022/04/19 12:45:20;;;;;;;10.02;6.75;;;6.30;99.90;;;;;;5016076;28;20641;-72
2022/04/19 12:47:48;;;;;;;9.53;6.97;;;6.30;99.90;;;;;;5021425;28;20034;-73
2022/04/19 12:50:16;;;;;;;8.48;6.20;;;6.40;99.90;;;;;;5023836;28;20029;-72
2022/04/19 12:52:44;;;;;;;8.90;6.70;;;6.40;99.90;;;;;;5024634;28;20021;-72
2022/04/19 12:55:11;;;;;;;8.35;6.22;;;6.40;99.90;;;;;;5022359;28;20458;-72
2022/04/19 12:57:38;;;;;;;10.13;6.30;;;6.50;99.90;;;;;;5021027;28;20025;-72
2022/04/19 13:00:06;;;;;;;13.80;8.60;;;6.50;99.90;;;;;;5025839;28;20025;-72
2022/04/19 13:02:33;;;;;;;11.52;8.27;;;6.60;99.90;;;;;;5016012;28;20355;-72
2022/04/19 13:04:58;;;;;;;8.95;6.40;;;6.50;99.90;;;;;;5024478;28;20434;-72
2022/04/19 13:13:06;;;;;;;9.25;7.00;;;6.70;99.90;;;;;;5024591;28;20048;-72
2022/04/19 13:15:34;;;;;;;7.03;5.57;;;6.80;99.90;;;;;;5024190;28;20024;-72
2022/04/19 13:18:00;;;;;;;9.93;7.32;;;6.70;99.90;;;;;;5022897;28;20032;-73
2022/04/19 13:20:27;;;;;;;11.13;8.30;;;6.70;99.90;;;;;;5014419;28;20029;-72
2022/04/19 13:22:52;;;;;;;7.68;6.03;;;6.70;99.90;;;;;;5025454;28;20480;-72
2022/04/19 13:25:20;;;;;;;11.67;8.90;;;6.70;99.90;;;;;;5020878;28;20033;-72
2022/04/19 13:27:47;;;;;;;6.88;5.80;;;6.70;99.90;;;;;;5026532;28;20463;-72
2022/04/19 13:30:13;;;;;;;9.10;6.80;;;6.60;99.90;;;;;;5020925;28;20022;-72
2022/04/19 13:32:41;;;;;;;9.13;6.82;;;6.60;99.90;;;;;;5019588;28;20359;-72
2022/04/19 13:35:08;;;;;;;8.00;5.70;;;6.60;99.90;;;;;;5019031;28;20666;-72
2022/04/19 13:40:20;;;;;;;12.23;7.30;;;6.40;99.90;;;;;;5016093;28;20526;-72
2022/04/19 13:42:46;;;;;;;9.45;6.97;;;6.20;99.90;;;;;;5019060;28;20026;-72
2022/04/19 13:45:12;;;;;;;10.43;7.50;;;6.20;99.90;;;;;;5016974;28;20433;-72
2022/04/19 13:47:38;;;;;;;8.77;6.60;;;6.20;99.90;;;;;;5026103;28;20041;-72
2022/04/19 13:50:04;;;;;;;10.10;7.30;;;6.10;99.90;;;;;;5018699;28;20526;-72
2022/04/19 13:52:33;;;;;;;9.98;7.05;;;6.00;99.90;;;;;;5042765;28;20031;-72
2022/04/19 13:55:00;;;;;;;8.90;6.75;;;6.00;99.90;;;;;;5022964;28;20013;-72
2022/04/19 13:57:25;;;;;;;9.48;6.85;;;6.10;99.90;;;;;;5022534;28;21539;-72
2022/04/19 13:59:51;;;;;;;8.33;6.80;;;6.30;99.90;;;;;;5016649;28;20033;-73